Time;durP1;ratioP1;P1;durP2;ratioP2;P2;SDS_P1;SDS_P2;PMS_P1;PMS_P2;Temp;Humidity;BMP_temperature;BMP_pressure;BME280_temperature;BME280_humidity;BME280_pressure;Samples;Min_cycle;Max_cycle;Signal;HPM_P1;HPM_P2
2022/05/04 00:01:29;;;;;;;11.60;7.20;;;;;;;8.67;64.39;101554.13;5078915;28;20235;-69
2022/05/04 00:03:54;;;;;;;10.17;6.40;;;;;;;8.58;65.31;101553.88;5078195;28;20495;-71
2022/05/04 00:06:20;;;;;;;9.37;6.47;;;;;;;8.84;64.82;101541.66;5079431;28;20429;-71
2022/05/04 00:08:47;;;;;;;15.93;7.03;;;;;;;8.83;65.03;101550.28;5078910;28;20165;-71
2022/05/04 00:11:13;;;;;;;9.67;6.90;;;;;;;8.75;65.66;101543.97;5078792;28;20480;-71
2022/05/04 00:13:39;;;;;;;7.50;6.63;;;;;;;8.62;66.20;101547.94;5078914;28;20415;-70
2022/05/04 00:16:06;;;;;;;12.50;6.93;;;;;;;8.64;66.02;101551.44;5078733;28;20208;-70
2022/05/04 00:18:31;;;;;;;9.30;7.07;;;;;;;8.65;65.89;101550.63;5077960;28;20537;-70
2022/05/04 00:20:57;;;;;;;10.87;6.60;;;;;;;8.73;65.87;101543.94;5079218;28;20445;-71
2022/05/04 00:23:23;;;;;;;13.37;7.57;;;;;;;8.65;66.09;101544.53;5078420;28;20260;-72
2022/05/04 00:25:48;;;;;;;15.47;8.37;;;;;;;8.82;65.86;101542.44;5078692;28;20518;-71
2022/05/04 00:28:14;;;;;;;17.00;7.70;;;;;;;8.89;65.12;101539.16;5078668;28;20462;-71
2022/05/04 00:30:39;;;;;;;13.17;8.07;;;;;;;8.80;65.70;101541.53;5079137;28;20173;-72
2022/05/04 00:33:05;;;;;;;9.37;5.50;;;;;;;11.40;70.38;101531.34;5078249;28;20204;-70
2022/05/04 00:35:30;;;;;;;8.60;6.40;;;;;;;14.28;61.13;101515.03;5078542;28;20438;-71
2022/05/04 00:37:55;;;;;;;9.87;6.53;;;;;;;12.41;53.03;101530.47;5078551;28;20526;-74
2022/05/04 00:40:21;;;;;;;10.97;5.90;;;;;;;11.08;56.94;101525.50;5078506;28;20172;-72
2022/05/04 00:42:46;;;;;;;8.17;6.40;;;;;;;10.20;58.98;101544.38;5078754;28;20271;-75
2022/05/04 00:45:11;;;;;;;11.43;6.73;;;;;;;9.46;61.57;101547.69;5078335;28;20191;-72
2022/05/04 00:47:37;;;;;;;12.60;7.10;;;;;;;9.17;63.40;101545.19;5078216;28;20228;-72
2022/05/04 00:50:05;;;;;;;10.03;6.70;;;;;;;8.62;64.64;101554.81;5078821;28;20169;-73
2022/05/04 00:52:32;;;;;;;10.60;8.20;;;;;;;8.87;64.43;101557.34;5078309;28;20184;-73
2022/05/04 00:54:58;;;;;;;15.07;6.60;;;;;;;8.54;65.52;101552.88;5077840;28;20431;-73
2022/05/04 01:00:08;;;;;;;13.80;7.97;;;;;;;8.27;66.31;101543.34;5077867;28;20541;-72
2022/05/04 01:02:34;;;;;;;11.80;7.10;;;;;;;8.24;66.30;101552.75;5078192;28;20470;-73
2022/05/04 01:04:59;;;;;;;10.63;6.80;;;;;;;8.13;66.21;101555.00;5077475;28;20484;-72
2022/05/04 01:07:24;;;;;;;14.73;7.50;;;;;;;8.13;66.56;101554.13;5078146;28;20581;-74
2022/05/04 01:09:50;;;;;;;9.03;6.43;;;;;;;8.06;66.76;101553.03;5078697;28;20204;-72
2022/05/04 01:12:15;;;;;;;9.80;7.13;;;;;;;8.08;66.75;101554.84;5078128;28;20184;-73
2022/05/04 01:14:41;;;;;;;11.53;7.10;;;;;;;8.03;66.72;101555.53;5078130;28;20176;-72
2022/05/04 01:17:06;;;;;;;13.27;7.47;;;;;;;8.23;66.00;101561.41;5078473;28;20480;-72
2022/05/04 01:19:31;;;;;;;12.57;8.00;;;;;;;8.03;66.25;101556.41;5078034;28;20185;-72
2022/05/04 01:21:57;;;;;;;14.83;7.70;;;;;;;7.91;66.86;101556.00;5077062;28;20271;-71
2022/05/04 01:24:22;;;;;;;12.17;8.40;;;;;;;7.93;66.80;101556.97;5078148;28;20306;-73
2022/05/04 01:26:48;;;;;;;12.17;7.37;;;;;;;8.03;66.76;101559.00;5077931;28;20526;-72
2022/05/04 01:29:14;;;;;;;15.00;8.13;;;;;;;7.93;66.34;101554.34;5077796;28;20168;-72
2022/05/04 01:31:39;;;;;;;11.57;7.20;;;;;;;8.10;66.12;101554.91;5078044;28;20165;-71
2022/05/04 01:34:04;;;;;;;10.30;6.77;;;;;;;7.71;67.07;101553.63;5078046;28;20445;-71
2022/05/04 01:36:29;;;;;;;21.70;7.90;;;;;;;8.04;66.30;101554.72;5078172;28;20172;-71
2022/05/04 01:38:55;;;;;;;16.93;7.57;;;;;;;7.70;67.59;101548.38;5078583;28;20173;-71
2022/05/04 01:44:04;;;;;;;11.63;7.93;;;;;;;7.89;67.05;101549.91;5078060;28;20625;-71
2022/05/04 01:46:29;;;;;;;13.03;7.13;;;;;;;7.61;67.04;101543.75;5077731;28;20528;-70
2022/05/04 01:48:54;;;;;;;9.77;7.70;;;;;;;7.88;66.40;101555.91;5078194;28;20177;-70
2022/05/04 01:51:19;;;;;;;10.10;7.57;;;;;;;7.81;67.16;101548.75;5078428;28;20441;-71
2022/05/04 01:53:45;;;;;;;13.77;7.33;;;;;;;7.75;66.73;101549.41;5077578;28;20539;-72
2022/05/04 01:56:11;;;;;;;19.43;8.07;;;;;;;7.56;67.55;101553.97;5077652;28;20168;-71
2022/05/04 01:58:37;;;;;;;14.43;7.60;;;;;;;7.67;67.33;101543.97;5078079;28;20240;-71
2022/05/04 02:01:02;;;;;;;9.83;7.90;;;;;;;7.86;66.84;101554.97;5077492;28;20418;-71
2022/05/04 02:03:27;;;;;;;12.87;8.53;;;;;;;7.65;67.13;101545.63;5076943;28;20173;-72
2022/05/04 02:05:54;;;;;;;19.13;8.90;;;;;;;7.67;67.85;101554.34;5078323;28;20165;-70
2022/05/04 02:08:19;;;;;;;14.47;8.33;;;;;;;7.30;67.75;101557.34;5060054;28;20192;-71
2022/05/04 02:10:45;;;;;;;14.23;8.13;;;;;;;7.32;68.25;101554.00;5077660;28;20525;-70
2022/05/04 02:13:10;;;;;;;12.03;7.53;;;;;;;7.35;68.14;101555.81;5077731;28;20248;-71
2022/05/04 02:15:35;;;;;;;11.97;8.83;;;;;;;7.25;68.79;101559.75;5077538;28;20242;-71
2022/05/04 02:18:00;;;;;;;13.33;7.87;;;;;;;7.63;67.63;101555.09;5077547;28;20409;-72
2022/05/04 02:20:26;;;;;;;15.37;8.40;;;;;;;7.14;68.60;101559.38;5078112;28;20176;-72
2022/05/04 02:22:51;;;;;;;12.93;8.70;;;;;;;7.39;68.24;101555.97;5076606;28;20168;-72
2022/05/04 02:25:17;;;;;;;11.63;7.90;;;;;;;7.12;69.01;101567.91;5077384;28;20173;-71
2022/05/04 02:27:43;;;;;;;11.20;7.70;;;;;;;7.04;69.18;101559.88;5080486;28;20487;-72
2022/05/04 02:30:09;;;;;;;13.97;8.07;;;;;;;7.04;69.56;101567.66;5081267;28;20181;-71
2022/05/04 02:32:34;;;;;;;11.00;8.30;;;;;;;7.15;69.06;101568.06;5081230;28;20402;-71
2022/05/04 02:37:56;;;;;;;14.43;8.20;;;;;;;7.42;68.11;101563.84;5080631;28;20172;-71
2022/05/04 02:40:22;;;;;;;13.90;8.27;;;;;;;7.23;68.18;101561.44;5080923;28;20423;-72
2022/05/04 02:42:47;;;;;;;14.80;9.17;;;;;;;7.10;68.68;101569.59;5080952;28;20797;-72
2022/05/04 02:45:13;;;;;;;13.83;8.80;;;;;;;7.19;68.55;101567.34;5080892;28;20164;-72
2022/05/04 02:47:39;;;;;;;17.33;8.07;;;;;;;7.27;68.27;101565.03;5079917;28;20224;-73
2022/05/04 02:50:05;;;;;;;14.23;8.20;;;;;;;6.98;69.13;101570.91;5080093;28;20169;-71
2022/05/04 02:52:30;;;;;;;14.67;8.53;;;;;;;7.06;68.97;101563.38;5080786;28;20435;-71
2022/05/04 02:54:56;;;;;;;14.57;8.40;;;;;;;7.01;69.35;101559.72;5080493;28;20415;-74
2022/05/04 02:57:21;;;;;;;14.90;8.47;;;;;;;6.93;69.07;101562.06;5080721;28;20165;-73
2022/05/04 02:59:47;;;;;;;16.83;8.67;;;;;;;6.91;68.78;101563.69;5081083;28;20169;-73
2022/05/04 03:02:27;;;;;;;10.37;8.30;;;;;;;6.62;70.11;101571.25;5080361;28;20538;-73
2022/05/04 03:04:59;;;;;;;13.50;9.20;;;;;;;6.95;70.18;101564.72;5080435;28;20223;-71
2022/05/04 03:07:26;;;;;;;15.70;8.50;;;;;;;6.94;69.47;101557.75;5080318;28;20605;-73
2022/05/04 03:09:52;;;;;;;13.90;8.27;;;;;;;6.55;70.32;101558.88;5080297;28;20654;-72
2022/05/04 03:12:18;;;;;;;17.20;9.73;;;;;;;6.67;69.84;101554.19;5080539;28;20418;-71
2022/05/04 03:14:43;;;;;;;13.07;8.07;;;;;;;6.78;69.81;101554.59;5080246;28;20412;-72
2022/05/04 03:17:09;;;;;;;12.37;8.13;;;;;;;6.92;69.47;101547.31;5080150;28;20196;-71
2022/05/04 03:19:35;;;;;;;13.97;9.20;;;;;;;6.64;70.17;101559.22;5080405;28;20531;-70
2022/05/04 03:22:00;;;;;;;18.90;9.77;;;;;;;6.68;70.67;101548.16;5080038;28;20418;-70
2022/05/04 03:24:26;;;;;;;13.27;9.07;;;;;;;7.01;68.81;101550.25;5080032;28;20173;-72
2022/05/04 03:26:51;;;;;;;13.47;9.10;;;;;;;6.80;69.96;101539.09;5080522;28;20451;-72
2022/05/04 03:29:16;;;;;;;13.10;8.80;;;;;;;6.86;69.58;101545.41;5080077;28;20517;-72
2022/05/04 03:31:42;;;;;;;12.00;8.70;;;;;;;6.82;69.54;101547.78;5079822;28;20164;-72
2022/05/04 03:34:07;;;;;;;14.30;8.90;;;;;;;6.89;69.39;101545.50;5080386;28;20450;-71
2022/05/04 03:36:35;;;;;;;14.30;9.00;;;;;;;6.72;69.51;101539.69;5080034;28;20268;-72
2022/05/04 03:39:01;;;;;;;14.70;10.03;;;;;;;6.77;69.88;101545.03;5079881;28;20161;-72
2022/05/04 03:41:26;;;;;;;17.60;9.80;;;;;;;6.94;69.59;101544.78;5080314;28;20536;-71
2022/05/04 03:43:52;;;;;;;15.77;10.07;;;;;;;6.78;69.42;101548.50;5079901;28;20457;-71
2022/05/04 03:46:19;;;;;;;11.80;8.80;;;;;;;6.80;70.35;101546.88;5079700;28;20258;-71
2022/05/04 03:48:47;;;;;;;12.80;8.97;;;;;;;6.46;70.38;101551.63;5079202;28;20193;-70
2022/05/04 03:51:18;;;;;;;11.67;9.83;;;;;;;6.74;70.75;101545.81;5079315;28;20820;-72
2022/05/04 03:53:45;;;;;;;12.10;8.90;;;;;;;7.00;69.59;101545.91;5079573;28;20419;-72
2022/05/04 03:56:10;;;;;;;16.30;9.17;;;;;;;6.98;69.28;101544.06;5080396;28;20403;-72
2022/05/04 03:58:37;;;;;;;13.97;8.77;;;;;;;7.03;68.52;101548.59;5079489;28;20425;-72
2022/05/04 04:01:03;;;;;;;14.20;8.63;;;;;;;7.04;68.49;101546.91;5079404;28;20176;-72
2022/05/04 04:03:28;;;;;;;10.33;8.73;;;;;;;6.92;68.94;101549.91;5079719;28;20415;-72
2022/05/04 04:05:53;;;;;;;15.17;9.47;;;;;;;6.91;68.83;101545.56;5079338;28;20172;-71
2022/05/04 04:08:19;;;;;;;11.83;8.60;;;;;;;6.86;69.17;101547.09;5079257;28;20269;-73
2022/05/04 04:10:44;;;;;;;14.40;7.87;;;;;;;7.13;68.31;101551.53;5079274;28;20415;-72
2022/05/04 04:13:09;;;;;;;14.93;8.53;;;;;;;7.27;67.58;101552.94;5078905;28;20172;-72
2022/05/04 04:15:35;;;;;;;15.87;8.73;;;;;;;7.16;67.95;101547.34;5079121;28;20177;-72
2022/05/04 04:18:00;;;;;;;16.50;9.27;;;;;;;7.35;67.93;101548.91;5079671;28;20257;-72
2022/05/04 04:23:10;;;;;;;10.77;8.27;;;;;;;7.62;65.75;101553.31;5078741;28;20175;-73
2022/05/04 04:25:35;;;;;;;15.03;8.57;;;;;;;8.04;65.29;101549.53;5078608;28;20423;-74
2022/05/04 04:28:00;;;;;;;10.93;8.20;;;;;;;8.02;64.98;101549.44;5077994;28;20248;-75
2022/05/04 04:30:26;;;;;;;14.83;8.00;;;;;;;9.04;62.28;101546.56;5079421;28;20184;-75
2022/05/04 04:32:52;;;;;;;13.07;7.07;;;;;;;8.83;61.22;101550.28;5078778;28;20169;-75
2022/05/04 04:35:17;;;;;;;12.47;7.90;;;;;;;9.23;61.22;101542.78;5078879;28;20587;-73
2022/05/04 04:37:42;;;;;;;9.63;7.80;;;;;;;9.31;60.87;101543.84;5079088;28;20165;-73
2022/05/04 04:40:08;;;;;;;9.70;7.10;;;;;;;9.23;60.78;101534.97;5078609;28;20179;-73
2022/05/04 04:42:33;;;;;;;14.23;7.50;;;;;;;9.25;60.55;101533.28;5078424;28;20254;-74
2022/05/04 04:44:59;;;;;;;13.00;8.07;;;;;;;9.80;58.94;101535.59;5079892;28;20169;-73
2022/05/04 04:47:25;;;;;;;10.47;7.80;;;;;;;9.52;59.33;101545.28;5078710;28;20231;-74
2022/05/04 04:49:56;;;;;;;9.60;6.57;;;;;;;9.55;59.96;101534.94;5078014;28;20211;-74
2022/05/04 04:52:21;;;;;;;11.73;7.83;;;;;;;9.20;60.17;101534.84;5078719;28;20447;-74
2022/05/04 04:54:46;;;;;;;8.07;6.80;;;;;;;9.71;59.48;101542.31;5078356;28;20439;-74
2022/05/04 04:57:12;;;;;;;9.83;7.10;;;;;;;11.28;55.64;101528.50;5078334;28;20267;-73
2022/05/04 04:59:37;;;;;;;15.70;8.03;;;;;;;10.79;55.00;101533.59;5078280;28;20182;-73
2022/05/04 05:02:02;;;;;;;9.97;6.97;;;;;;;10.79;55.47;101541.44;5078158;28;20240;-73
2022/05/04 05:04:28;;;;;;;12.63;7.10;;;;;;;10.93;54.82;101539.09;5078506;28;20177;-73
2022/05/04 05:06:53;;;;;;;8.47;7.13;;;;;;;11.54;52.84;101534.22;5078758;28;20276;-73
2022/05/04 05:09:18;;;;;;;8.90;6.87;;;;;;;11.36;52.85;101531.28;5078427;28;20595;-73
2022/05/04 05:11:44;;;;;;;9.67;6.50;;;;;;;11.22;53.89;101536.22;5078085;28;20241;-73
2022/05/04 05:16:53;;;;;;;11.67;7.03;;;;;;;10.40;55.53;101530.13;5078349;28;20214;-75
2022/05/04 05:19:19;;;;;;;9.73;6.20;;;;;;;10.79;54.98;101537.06;5078249;28;20816;-75
2022/05/04 05:21:44;;;;;;;7.10;5.93;;;;;;;12.70;50.30;101524.75;5077853;28;20172;-76
2022/05/04 05:24:09;;;;;;;7.23;5.90;;;;;;;14.70;45.45;101511.81;5077825;28;20199;-74
2022/05/04 05:26:35;;;;;;;9.50;6.60;;;;;;;15.19;42.94;101516.38;5078612;28;20169;-75
2022/05/04 05:29:00;;;;;;;8.50;5.90;;;;;;;15.28;42.41;101511.16;5078190;28;20570;-75
2022/05/04 05:31:25;;;;;;;11.77;5.73;;;;;;;15.76;41.64;101512.09;5077888;28;20176;-74
2022/05/04 05:33:51;;;;;;;7.33;5.10;;;;;;;17.42;38.27;101511.69;5074558;28;20173;-76
2022/05/04 05:36:16;;;;;;;9.67;5.90;;;;;;;16.91;38.34;101506.69;5068613;28;20192;-75
2022/05/04 05:38:41;;;;;;;11.27;6.47;;;;;;;18.00;36.35;101505.97;5069440;28;20169;-75
2022/05/04 05:41:06;;;;;;;12.57;5.77;;;;;;;18.80;34.88;101506.88;5077007;28;20185;-74
2022/05/04 05:43:32;;;;;;;10.90;5.73;;;;;;;17.55;37.09;101509.81;5057584;28;20451;-74
2022/05/04 05:45:57;;;;;;;13.17;5.17;;;;;;;18.50;35.30;101511.63;5064365;28;20259;-75
2022/05/04 05:48:22;;;;;;;8.30;4.83;;;;;;;16.75;37.99;101511.97;5078050;28;20215;-75
2022/05/04 05:50:48;;;;;;;9.30;5.33;;;;;;;17.35;36.77;101510.84;5071412;28;20184;-75
2022/05/04 05:53:14;;;;;;;8.87;5.37;;;;;;;18.51;34.48;101505.47;5068089;28;20208;-75
2022/05/04 05:55:40;;;;;;;7.80;6.30;;;;;;;18.64;34.16;101500.06;5072623;28;20173;-75
2022/05/04 05:58:05;;;;;;;4.70;4.13;;;;;;;18.40;33.53;101498.56;5069911;28;20423;-77
2022/05/04 06:00:31;;;;;;;5.00;3.60;;;;;;;18.68;33.60;101499.13;5070218;28;20462;-78
2022/05/04 06:02:56;;;;;;;9.03;4.57;;;;;;;18.37;33.49;101507.38;5072790;28;20181;-78
2022/05/04 06:05:21;;;;;;;8.23;3.77;;;;;;;18.92;32.54;101502.41;5065297;28;20180;-79
2022/05/04 06:07:48;;;;;;;6.70;4.40;;;;;;;18.43;33.55;101506.44;5081054;28;20584;-76
2022/05/04 06:10:14;;;;;;;6.87;4.07;;;;;;;18.58;32.86;101508.03;5080980;28;20193;-77
2022/05/04 06:12:40;;;;;;;8.17;4.40;;;;;;;18.90;32.79;101501.53;5062017;28;20729;-77
2022/05/04 06:15:07;;;;;;;4.33;3.27;;;;;;;18.37;33.50;101503.88;5081341;28;20498;-77
2022/05/04 06:17:33;;;;;;;6.37;3.83;;;;;;;17.48;34.60;101512.53;5080674;28;20158;-74
2022/05/04 06:19:58;;;;;;;5.33;4.10;;;;;;;19.26;32.09;101501.94;5081108;28;20411;-75
2022/05/04 06:22:23;;;;;;;6.33;3.33;;;;;;;19.43;31.48;101502.56;5080133;28;20460;-75
2022/05/04 06:24:49;;;;;;;9.07;5.80;;;;;;;19.43;32.32;101505.22;5081126;28;20221;-76
2022/05/04 06:27:14;;;;;;;4.70;3.73;;;;;;;19.20;37.84;101513.47;5080208;28;20192;-76
2022/05/04 06:35:07;;;;;;;5.43;3.70;;;;;;;16.56;37.03;101528.69;5080788;28;20473;-76
2022/05/04 06:37:33;;;;;;;5.80;3.83;;;;;;;15.64;37.39;101525.22;5073791;28;20427;-74
2022/05/04 06:39:58;;;;;;;7.47;3.77;;;;;;;16.74;35.25;101519.91;5076652;28;20181;-77
2022/05/04 06:42:23;;;;;;;9.00;3.70;;;;;;;16.22;36.39;101518.25;5081529;28;20161;-74
2022/05/04 06:44:49;;;;;;;19.10;4.40;;;;;;;21.01;36.41;101500.63;5073851;28;20173;-67
2022/05/04 06:47:14;;;;;;;6.80;3.77;;;;;;;19.71;33.63;101503.91;5075980;28;20606;-66
2022/05/04 06:49:39;;;;;;;7.53;4.60;;;;;;;21.67;33.09;101505.31;5076839;28;20547;-67
2022/05/04 06:52:06;;;;;;;17.57;3.83;;;;;;;21.58;32.82;101498.47;5071137;28;20193;-66
2022/05/04 06:54:31;;;;;;;5.57;4.03;;;;;;;22.11;29.06;101500.66;5077610;28;20485;-66
2022/05/04 06:56:59;;;;;;;9.43;4.10;;;;;;;20.45;30.94;101500.84;5079794;28;20514;-66
2022/05/04 06:59:26;;;;;;;8.10;5.00;;;;;;;20.27;32.51;101504.72;5079937;28;20172;-66
2022/05/04 07:01:52;;;;;;;7.10;4.47;;;;;;;18.37;34.63;101515.31;5060055;28;20438;-74
2022/05/04 07:04:17;;;;;;;7.40;4.57;;;;;;;16.53;37.99;101531.34;5060022;28;20424;-74
2022/05/04 07:06:42;;;;;;;5.90;4.60;;;;;;;16.50;37.46;101524.34;5072651;28;20486;-73
2022/05/04 07:09:08;;;;;;;10.20;6.10;;;;;;;16.75;39.06;101532.16;5076757;28;20550;-73
2022/05/04 07:11:33;;;;;;;6.60;5.17;;;;;;;16.26;39.82;101527.88;5069544;28;20181;-74
2022/05/04 07:13:58;;;;;;;7.50;4.97;;;;;;;15.65;40.70;101527.88;5051707;28;20177;-72
2022/05/04 07:16:24;;;;;;;8.00;5.07;;;;;;;15.15;41.09;101534.75;5079014;28;20227;-72
2022/05/04 07:18:49;;;;;;;6.43;5.07;;;;;;;14.74;42.21;101534.56;5063922;28;20216;-71
2022/05/04 07:21:14;;;;;;;9.63;5.60;;;;;;;14.74;42.76;101535.44;5074172;28;20439;-71
2022/05/04 07:23:40;;;;;;;7.83;5.30;;;;;;;15.66;40.90;101534.00;5074581;28;20215;-73
2022/05/04 07:26:05;;;;;;;8.07;5.40;;;;;;;14.49;43.26;101539.63;5074105;28;20197;-75
2022/05/04 07:28:31;;;;;;;10.90;5.90;;;;;;;14.62;43.47;101535.34;5075774;28;20250;-75
2022/05/04 07:30:56;;;;;;;7.30;4.97;;;;;;;15.49;41.64;101531.31;5072860;28;20231;-75
2022/05/04 07:33:21;;;;;;;8.33;5.50;;;;;;;18.63;35.67;101514.13;5058746;28;20177;-75
2022/05/04 07:35:47;;;;;;;11.03;5.83;;;;;;;19.16;34.32;101515.28;5059078;28;20173;-74
2022/05/04 07:38:12;;;;;;;7.50;5.37;;;;;;;17.96;35.69;101520.09;5062636;28;20177;-75
2022/05/04 07:43:21;;;;;;;8.87;4.30;;;;;;;17.61;36.17;101531.75;5067247;28;20246;-75
2022/05/04 07:45:47;;;;;;;10.40;5.27;;;;;;;16.60;38.24;101530.44;5065409;28;20467;-75
2022/05/04 07:48:12;;;;;;;5.80;4.27;;;;;;;15.90;39.39;101532.28;5072939;28;20200;-74
2022/05/04 07:50:38;;;;;;;8.67;4.70;;;;;;;18.18;34.85;101536.63;5067587;28;20177;-73
2022/05/04 07:53:03;;;;;;;6.43;4.37;;;;;;;19.37;32.63;101515.88;5078542;28;20192;-74
2022/05/04 07:55:30;;;;;;;7.23;3.93;;;;;;;19.04;33.03;101523.38;5079449;28;20248;-74
2022/05/04 07:57:56;;;;;;;7.70;4.67;;;;;;;20.41;30.78;101522.13;5078598;28;20164;-75
2022/05/04 08:05:48;;;;;;;5.97;3.77;;;;;;;19.26;31.33;101523.94;5079233;28;20411;-74
2022/05/04 08:08:14;;;;;;;5.07;3.73;;;;;;;19.83;31.15;101520.47;5079180;28;20451;-77
2022/05/04 08:10:40;;;;;;;6.10;3.70;;;;;;;19.58;31.18;101513.78;5079060;28;20177;-75
2022/05/04 08:13:06;;;;;;;9.07;4.00;;;;;;;21.06;29.52;101513.75;5079175;28;20184;-74
2022/05/04 08:15:31;;;;;;;4.57;3.90;;;;;;;21.94;28.39;101510.84;5078223;28;20427;-73
2022/05/04 08:17:58;;;;;;;4.33;3.70;;;;;;;21.05;29.24;101517.31;5079011;28;20177;-73
2022/05/04 08:20:24;;;;;;;5.03;3.60;;;;;;;20.37;29.81;101526.59;5078879;28;20218;-75
2022/05/04 08:22:50;;;;;;;7.90;4.37;;;;;;;21.97;28.33;101522.25;5078705;28;20419;-75
2022/05/04 08:25:17;;;;;;;4.70;4.20;;;;;;;22.60;27.86;101516.22;5077911;28;20509;-74
2022/05/04 08:27:43;;;;;;;8.10;4.73;;;;;;;21.43;28.13;101520.00;5078774;28;20242;-74
2022/05/04 08:30:09;;;;;;;5.43;3.70;;;;;;;21.49;28.37;101520.75;5078502;28;20423;-77
2022/05/04 08:32:34;;;;;;;7.27;4.57;;;;;;;22.19;26.82;101527.91;5078839;28;20502;-75
2022/05/04 08:34:59;;;;;;;7.03;3.60;;;;;;;22.29;27.78;101525.00;5079648;28;20206;-76
2022/05/04 08:37:28;;;;;;;7.70;4.27;;;;;;;22.00;27.43;101526.63;5079147;28;20176;-77
2022/05/04 08:39:56;;;;;;;7.13;3.77;;;;;;;21.12;28.46;101533.97;5078589;28;20234;-76
2022/05/04 08:42:22;;;;;;;6.80;3.80;;;;;;;21.15;29.09;101532.13;5078029;28;20498;-76
2022/05/04 08:44:52;;;;;;;6.77;4.10;;;;;;;20.79;29.72;101537.28;5078403;28;20773;-77
2022/05/04 08:47:20;;;;;;;4.57;3.70;;;;;;;19.94;29.89;101544.09;5078207;28;20243;-77
2022/05/04 08:49:47;;;;;;;8.17;4.07;;;;;;;21.99;27.09;101524.91;5078809;28;20498;-77
2022/05/04 08:52:13;;;;;;;5.80;4.20;;;;;;;20.69;29.04;101533.09;5077815;28;20513;-76
2022/05/04 08:54:38;;;;;;;6.37;4.30;;;;;;;19.69;30.74;101535.66;5078279;28;20478;-77
2022/05/04 08:57:04;;;;;;;7.87;4.70;;;;;;;19.61;31.56;101535.78;5078450;28;20499;-74
2022/05/04 08:59:29;;;;;;;8.03;4.20;;;;;;;18.39;32.48;101539.94;5078103;28;20437;-74
2022/05/04 09:01:54;;;;;;;7.23;4.33;;;;;;;19.43;31.71;101528.13;5077894;28;20231;-75
2022/05/04 09:04:20;;;;;;;12.30;4.90;;;;;;;19.49;31.25;101528.03;5078189;28;20541;-77
2022/05/04 09:06:45;;;;;;;5.00;4.45;;;;;;;18.93;31.96;101530.53;5077950;28;20203;-76
2022/05/04 09:09:11;;;;;;;7.47;4.60;;;;;;;19.13;31.85;101533.84;5077758;28;20613;-75
2022/05/04 09:11:42;;;;;;;6.27;4.40;;;;;;;19.66;31.64;101527.75;5078031;28;20231;-75
2022/05/04 09:14:09;;;;;;;5.93;4.43;;;;;;;19.83;31.03;101515.16;5077971;28;20197;-78
2022/05/04 09:16:34;;;;;;;8.07;4.73;;;;;;;19.17;31.39;101521.44;5077921;28;20423;-74
2022/05/04 09:19:10;;;;;;;7.00;5.30;;;;;;;20.26;30.34;101518.00;5078293;28;20418;-76
2022/05/04 09:21:36;;;;;;;7.43;4.60;;;;;;;21.62;28.64;101520.47;5077800;28;20183;-72
2022/05/04 09:24:02;;;;;;;7.10;4.53;;;;;;;21.36;28.37;101519.28;5077915;28;20473;-76
2022/05/04 09:26:27;;;;;;;7.73;3.90;;;;;;;21.68;27.91;101520.34;5077835;28;20423;-77
2022/05/04 09:29:04;;;;;;;6.63;4.70;;;;;;;22.90;26.80;101508.28;5077704;28;20211;-77
2022/05/04 09:31:30;;;;;;;6.37;3.97;;;;;;;22.57;26.51;101506.53;5077740;28;20195;-76
2022/05/04 09:34:01;;;;;;;5.60;4.17;;;;;;;23.10;26.28;101511.19;5078234;28;20415;-77
2022/05/04 09:45:14;;;;;;;6.97;4.87;;;;;;;20.08;30.22;101519.16;5081682;28;20822;-74
2022/05/04 09:47:42;;;;;;;6.93;4.80;;;;;;;19.04;31.53;101523.38;5081505;28;20897;-73
2022/05/04 09:50:09;;;;;;;6.33;4.80;;;;;;;20.64;29.54;101521.69;5081248;28;20426;-74
2022/05/04 09:52:46;;;;;;;8.43;5.20;;;;;;;20.92;29.40;101529.06;5081422;28;20482;-73
2022/05/04 09:55:15;;;;;;;8.10;4.57;;;;;;;19.69;31.24;101517.16;5080078;28;20437;-73
2022/05/04 09:57:43;;;;;;;8.20;4.97;;;;;;;19.30;31.94;101520.38;5081718;28;20486;-72
2022/05/04 10:00:09;;;;;;;5.00;4.50;;;;;;;19.10;32.19;101522.41;5081263;28;20864;-73
2022/05/04 10:02:36;;;;;;;7.97;5.60;;;;;;;20.55;30.94;101521.84;5081174;28;20439;-73
2022/05/04 10:05:02;;;;;;;12.27;5.30;;;;;;;19.36;31.84;101516.75;5081530;28;20175;-71
2022/05/04 10:07:28;;;;;;;7.30;4.70;;;;;;;20.74;30.79;101519.75;5080717;28;20466;-72
2022/05/04 10:09:53;;;;;;;7.73;4.77;;;;;;;20.63;30.31;101518.13;5080697;28;20498;-74
2022/05/04 10:12:19;;;;;;;9.10;4.97;;;;;;;20.59;30.26;101516.44;5081324;28;20169;-75
2022/05/04 10:14:45;;;;;;;7.77;4.80;;;;;;;20.08;30.91;101516.53;5080547;28;20561;-74
2022/05/04 10:17:13;;;;;;;8.10;5.00;;;;;;;21.06;29.75;101523.50;5080306;28;20169;-77
2022/05/04 10:19:53;;;;;;;8.43;4.73;;;;;;;19.79;30.82;101520.50;5080899;28;20414;-74
2022/05/04 10:22:28;;;;;;;5.90;4.80;;;;;;;19.69;31.27;101522.44;5080078;28;20419;-74
2022/05/04 10:24:56;;;;;;;6.47;5.43;;;;;;;20.90;29.52;101515.88;5080876;28;20413;-74
2022/05/04 10:27:23;;;;;;;5.73;5.23;;;;;;;20.61;29.81;101513.78;5080099;28;20504;-73
2022/05/04 10:32:45;;;;;;;5.50;5.00;;;;;;;21.98;28.90;101508.06;5083846;28;20684;-75
2022/05/04 10:35:17;;;;;;;7.13;5.30;;;;;;;21.63;30.13;101507.16;5080775;28;20415;-73
2022/05/04 10:37:58;;;;;;;11.50;5.70;;;;;;;20.80;29.65;101520.50;5080720;28;20415;-72
2022/05/04 10:40:30;;;;;;;13.17;4.83;;;;;;;22.41;28.36;101503.44;5080731;28;20411;-72
2022/05/04 10:42:57;;;;;;;6.23;4.97;;;;;;;21.91;28.64;101505.63;5080624;28;20654;-74
2022/05/04 10:45:24;;;;;;;12.80;5.53;;;;;;;21.89;28.51;101502.13;5080590;28;20718;-77
2022/05/04 10:47:49;;;;;;;5.73;4.67;;;;;;;21.32;29.01;101499.03;5077511;28;20505;-76
2022/05/04 10:50:18;;;;;;;5.43;4.77;;;;;;;21.87;28.44;101491.56;5080196;28;20817;-76
2022/05/04 10:52:47;;;;;;;6.27;5.10;;;;;;;21.28;29.31;101489.41;5079667;28;20212;-75
2022/05/04 10:55:13;;;;;;;8.07;5.60;;;;;;;22.30;28.47;101485.09;5080402;28;20828;-75
2022/05/04 10:57:41;;;;;;;8.60;5.40;;;;;;;20.57;29.99;101493.56;5080326;28;20423;-75
2022/05/04 11:00:08;;;;;;;6.50;5.00;;;;;;;20.65;30.12;101484.56;5080795;28;20495;-75
2022/05/04 11:02:33;;;;;;;5.23;4.73;;;;;;;21.11;30.09;101485.38;5080177;28;20685;-75
2022/05/04 11:05:11;;;;;;;5.83;5.20;;;;;;;21.85;28.70;101486.28;5080466;28;20423;-75
2022/05/04 11:07:36;;;;;;;5.73;5.23;;;;;;;21.94;28.70;101492.28;5080313;28;20219;-75
2022/05/04 11:10:02;;;;;;;10.37;5.13;;;;;;;21.00;29.87;101487.41;5080269;28;20419;-75
2022/05/04 11:12:27;;;;;;;11.03;5.50;;;;;;;21.11;29.95;101493.34;5080485;28;20805;-74
2022/05/04 11:14:53;;;;;;;9.10;5.47;;;;;;;21.03;30.00;101487.31;5080177;28;20461;-75
2022/05/04 11:17:18;;;;;;;10.33;5.83;;;;;;;19.90;31.24;101484.19;5080067;28;20169;-73
2022/05/04 11:19:45;;;;;;;6.20;5.60;;;;;;;19.61;31.43;101484.66;5080467;28;20168;-71
2022/05/04 11:22:11;;;;;;;7.63;5.97;;;;;;;20.67;30.46;101484.50;5079986;28;20531;-70
2022/05/04 11:24:37;;;;;;;5.90;5.30;;;;;;;20.38;30.56;101475.38;5080118;28;20476;-72
2022/05/04 11:27:04;;;;;;;6.27;5.30;;;;;;;19.64;31.58;101471.38;5079811;28;20415;-73
2022/05/04 11:29:29;;;;;;;5.90;5.30;;;;;;;21.08;31.14;101466.91;5080342;28;20172;-74
2022/05/04 11:31:57;;;;;;;6.23;4.90;;;;;;;19.46;31.84;101467.28;5079937;28;20415;-73
2022/05/04 11:34:28;;;;;;;6.33;4.80;;;;;;;19.90;31.41;101470.97;5080369;28;20165;-73
2022/05/04 11:36:56;;;;;;;9.60;5.40;;;;;;;21.06;30.15;101468.69;5079157;28;20419;-73
2022/05/04 11:39:26;;;;;;;7.90;5.10;;;;;;;21.44;29.48;101463.41;5079900;28;20443;-73
2022/05/04 11:41:54;;;;;;;6.93;5.57;;;;;;;21.78;28.86;101462.59;5079649;28;20473;-74
2022/05/04 11:44:21;;;;;;;8.27;5.37;;;;;;;21.25;29.95;101462.97;5079860;28;20418;-74
2022/05/04 11:46:48;;;;;;;11.10;5.40;;;;;;;20.33;30.30;101466.66;5079582;28;20743;-75
2022/05/04 11:49:13;;;;;;;7.30;5.13;;;;;;;20.80;30.75;101456.88;5079644;28;20419;-75
2022/05/04 11:51:39;;;;;;;8.07;5.80;;;;;;;20.39;30.84;101452.41;5079219;28;20421;-74
2022/05/04 11:54:05;;;;;;;6.87;5.20;;;;;;;20.13;31.22;101464.38;5079245;28;20177;-74
2022/05/04 11:56:31;;;;;;;8.27;5.03;;;;;;;21.57;29.58;101453.38;5079598;28;20176;-73
2022/05/04 11:58:56;;;;;;;8.40;5.53;;;;;;;20.64;30.33;101463.38;5079108;28;20180;-71